Time;durP1;ratioP1;P1;durP2;ratioP2;P2;SDS_P1;SDS_P2;PMS_P1;PMS_P2;Temp;Humidity;BMP_temperature;BMP_pressure;BME280_temperature;BME280_humidity;BME280_pressure;Samples;Min_cycle;Max_cycle;Signal;HPM_P1;HPM_P2
2022/12/14 00:01:56;;;;;;;26.83;12.30;;;-4.80;99.90;;;;;;5070248;28;20032;-88
2022/12/14 00:04:21;;;;;;;26.27;11.48;;;-4.80;99.90;;;;;;5070751;28;20383;-88
2022/12/14 00:06:47;;;;;;;22.77;10.55;;;-4.80;99.90;;;;;;5073844;28;20033;-88
2022/12/14 00:09:14;;;;;;;27.00;11.32;;;-4.80;99.90;;;;;;5079255;28;20025;-88
2022/12/14 00:11:49;;;;;;;28.25;11.95;;;-4.80;99.90;;;;;;5076195;28;20392;-88
2022/12/14 00:14:14;;;;;;;30.05;11.98;;;-4.80;99.90;;;;;;5076353;28;20059;-87
2022/12/14 00:16:40;;;;;;;28.48;11.57;;;-4.80;99.90;;;;;;5069563;28;20021;-87
2022/12/14 00:19:06;;;;;;;21.67;10.80;;;-4.90;99.90;;;;;;5076271;28;20657;-88
2022/12/14 00:21:32;;;;;;;27.65;11.30;;;-4.90;99.90;;;;;;5079424;28;20021;-88
2022/12/14 00:23:59;;;;;;;23.83;11.15;;;-4.90;99.90;;;;;;5076293;28;20020;-88
2022/12/14 00:26:27;;;;;;;30.42;12.73;;;-4.80;99.90;;;;;;5077337;28;20031;-88
2022/12/14 00:28:54;;;;;;;21.80;11.07;;;-4.80;99.90;;;;;;5082477;28;20476;-88
2022/12/14 00:31:21;;;;;;;25.30;12.00;;;-4.80;99.90;;;;;;5076071;28;20028;-88
2022/12/14 00:33:49;;;;;;;24.80;11.32;;;-4.80;99.90;;;;;;5059119;28;20029;-88
2022/12/14 00:36:14;;;;;;;28.67;12.20;;;-4.80;99.90;;;;;;5076040;28;20494;-88
2022/12/14 00:38:41;;;;;;;25.55;11.35;;;-4.80;99.90;;;;;;5075949;28;20032;-88
2022/12/14 00:41:07;;;;;;;31.63;12.52;;;-4.70;99.90;;;;;;5072749;28;20070;-88
2022/12/14 00:43:33;;;;;;;31.00;14.07;;;-4.80;99.90;;;;;;5072563;28;20035;-88
2022/12/14 00:46:05;;;;;;;22.95;11.90;;;-4.80;99.90;;;;;;5075779;28;20020;-88
2022/12/14 00:48:31;;;;;;;27.98;11.55;;;-4.80;99.90;;;;;;5059022;28;20032;-88
2022/12/14 00:50:57;;;;;;;27.50;12.05;;;-4.80;99.90;;;;;;5067522;28;20483;-88
2022/12/14 00:53:24;;;;;;;28.55;12.10;;;-4.80;99.90;;;;;;5074824;28;20033;-89
2022/12/14 00:55:50;;;;;;;29.95;11.95;;;-4.80;99.90;;;;;;5063581;28;20522;-88
2022/12/14 00:58:19;;;;;;;25.90;12.73;;;-4.80;99.90;;;;;;5074316;28;20116;-88
2022/12/14 01:04:49;;;;;;;26.52;12.98;;;-4.70;99.90;;;;;;5072142;28;20510;-88
2022/12/14 01:07:14;;;;;;;28.95;12.07;;;-4.70;99.90;;;;;;5074035;28;20044;-88
2022/12/14 01:09:40;;;;;;;25.33;12.45;;;-4.80;99.90;;;;;;5056604;28;20032;-88
2022/12/14 01:12:05;;;;;;;32.08;13.60;;;-4.80;99.90;;;;;;5075315;28;20036;-88
2022/12/14 01:14:50;;;;;;;31.17;13.88;;;-4.70;99.90;;;;;;5063761;28;20686;-88
2022/12/14 01:17:15;;;;;;;34.40;13.85;;;-4.70;99.90;;;;;;5069304;28;20020;-88
2022/12/14 01:20:01;;;;;;;29.48;12.70;;;-4.70;99.90;;;;;;5075575;28;20062;-88
2022/12/14 01:22:26;;;;;;;30.45;13.25;;;-4.70;99.90;;;;;;5081252;28;20485;-88
2022/12/14 01:24:52;;;;;;;32.28;14.05;;;-4.70;99.90;;;;;;5059238;28;20025;-88
2022/12/14 01:27:18;;;;;;;34.63;13.70;;;-4.70;99.90;;;;;;5063186;28;20028;-88
2022/12/14 01:29:43;;;;;;;29.60;13.27;;;-4.80;99.90;;;;;;5074283;28;20669;-89
2022/12/14 01:32:09;;;;;;;35.60;14.43;;;-4.70;99.90;;;;;;5077381;28;20036;-88
2022/12/14 01:34:35;;;;;;;30.05;13.93;;;-4.70;99.90;;;;;;5056328;28;20020;-88
2022/12/14 01:37:01;;;;;;;31.13;13.93;;;-4.70;99.90;;;;;;5074882;28;20459;-88
2022/12/14 01:39:26;;;;;;;30.35;12.75;;;-4.70;99.90;;;;;;5075237;28;20025;-89
2022/12/14 01:41:52;;;;;;;30.98;13.35;;;-4.70;99.90;;;;;;5075042;28;20078;-88
2022/12/14 01:44:18;;;;;;;28.33;13.80;;;-4.70;99.90;;;;;;5074953;28;20025;-88
2022/12/14 01:46:52;;;;;;;30.67;13.95;;;-4.70;99.90;;;;;;5058014;28;20495;-88
2022/12/14 01:49:31;;;;;;;31.40;13.88;;;-4.70;99.90;;;;;;5074842;28;20468;-89
2022/12/14 01:52:06;;;;;;;31.55;14.48;;;-4.70;99.90;;;;;;5074799;28;20028;-88
2022/12/14 01:54:33;;;;;;;30.05;14.23;;;-4.70;99.90;;;;;;5074697;28;20148;-88
2022/12/14 01:56:59;;;;;;;34.33;15.95;;;-4.70;99.90;;;;;;5074739;28;20103;-88
2022/12/14 01:59:35;;;;;;;33.63;14.93;;;-4.80;99.90;;;;;;5074281;28;20033;-89
2022/12/14 02:02:05;;;;;;;30.23;13.48;;;-4.80;99.90;;;;;;5084124;28;20020;-88
2022/12/14 02:04:35;;;;;;;36.60;14.75;;;-4.80;99.90;;;;;;5074663;28;20032;-88
2022/12/14 02:07:02;;;;;;;27.43;14.10;;;-4.80;99.90;;;;;;5066418;28;20032;-88
2022/12/14 02:09:32;;;;;;;37.30;14.60;;;-4.80;99.90;;;;;;5082525;28;20275;-88
2022/12/14 02:12:09;;;;;;;38.90;15.15;;;-4.80;99.90;;;;;;5073514;28;20494;-88
2022/12/14 02:14:35;;;;;;;37.33;15.05;;;-4.70;99.90;;;;;;5073904;28;20503;-88
2022/12/14 02:17:01;;;;;;;40.20;16.52;;;-4.80;99.90;;;;;;5073398;28;20027;-88
2022/12/14 02:19:27;;;;;;;33.08;15.43;;;-4.80;99.90;;;;;;5080260;28;20032;-88
2022/12/14 02:22:38;;;;;;;34.70;15.48;;;-4.80;99.90;;;;;;5073818;28;20029;-88
2022/12/14 02:25:28;;;;;;;38.13;16.27;;;-4.70;99.90;;;;;;5047383;28;20464;-88
2022/12/14 02:28:22;;;;;;;33.65;15.82;;;-4.70;99.90;;;;;;5076906;28;20039;-88
2022/12/14 02:30:55;;;;;;;31.50;15.00;;;-4.70;99.90;;;;;;5073736;28;20039;-88
2022/12/14 02:33:48;;;;;;;36.65;16.30;;;-4.70;99.90;;;;;;5057374;28;20092;-89
2022/12/14 02:36:26;;;;;;;35.65;14.70;;;-4.70;99.90;;;;;;5074752;28;20028;-88
2022/12/14 02:39:13;;;;;;;31.42;14.68;;;-4.70;99.90;;;;;;5072536;28;20124;-89
2022/12/14 02:41:43;;;;;;;36.08;16.25;;;-4.70;99.90;;;;;;5070105;28;20295;-88
2022/12/14 02:44:21;;;;;;;39.30;15.48;;;-4.70;99.90;;;;;;5073478;28;20055;-88
2022/12/14 02:47:15;;;;;;;36.10;14.90;;;-4.70;99.90;;;;;;5056852;28;20074;-88
2022/12/14 02:50:06;;;;;;;36.72;15.38;;;-4.70;99.90;;;;;;5071815;28;20017;-88
2022/12/14 02:52:47;;;;;;;;;;;-4.70;99.90;;;;;;5034473;28;20086;-88
2022/12/14 02:55:34;;;;;;;33.00;15.48;;;-4.70;99.90;;;;;;5062073;28;19916;-89
2022/12/14 02:58:02;;;;;;;34.20;16.02;;;-4.70;99.90;;;;;;5056660;28;20426;-88
2022/12/14 03:00:32;;;;;;;39.80;16.25;;;-4.70;99.90;;;;;;5072969;28;20060;-88
2022/12/14 03:02:59;;;;;;;36.25;16.40;;;-4.70;99.90;;;;;;5073572;28;20032;-88
2022/12/14 03:05:25;;;;;;;38.63;15.60;;;-4.70;99.90;;;;;;5073453;28;20093;-88
2022/12/14 03:07:58;;;;;;;45.13;16.90;;;-4.70;99.90;;;;;;5056329;28;20028;-88
2022/12/14 03:10:51;;;;;;;39.85;17.67;;;-4.70;99.90;;;;;;5073295;28;20039;-88
2022/12/14 03:13:33;;;;;;;36.42;15.77;;;-4.70;99.90;;;;;;5077316;28;20446;-88
2022/12/14 03:16:22;;;;;;;35.28;15.43;;;-4.70;99.90;;;;;;5073210;28;20051;-88
2022/12/14 03:19:01;;;;;;;35.75;17.00;;;-4.70;99.90;;;;;;5064648;28;20028;-88
2022/12/14 03:21:39;;;;;;;36.60;16.63;;;-4.70;99.90;;;;;;5079950;28;20672;-88
2022/12/14 03:24:11;;;;;;;37.25;17.27;;;-4.70;99.90;;;;;;5088354;28;20032;-88
2022/12/14 03:26:48;;;;;;;38.13;17.00;;;-4.70;99.90;;;;;;5080264;28;20031;-88
2022/12/14 03:29:35;;;;;;;41.83;17.58;;;-4.70;99.90;;;;;;5085251;28;20032;-88
2022/12/14 03:32:18;;;;;;;37.58;16.98;;;-4.70;99.90;;;;;;5063125;28;20043;-88
2022/12/14 03:34:59;;;;;;;42.05;17.92;;;-4.70;99.90;;;;;;5079745;28;20123;-88
2022/12/14 03:37:30;;;;;;;;;;;-4.70;99.90;;;;;;5063412;28;20059;-88
2022/12/14 03:39:56;;;;;;;45.13;19.58;;;-4.70;99.90;;;;;;5063033;28;19910;-88
2022/12/14 03:42:51;;;;;;;46.47;19.77;;;-4.70;99.90;;;;;;5079630;28;20036;-88
2022/12/14 03:45:27;;;;;;;41.35;17.95;;;-4.70;99.90;;;;;;5087519;28;20527;-88
2022/12/14 03:47:59;;;;;;;45.22;18.40;;;-4.70;99.90;;;;;;5094639;28;20067;-88
2022/12/14 03:50:37;;;;;;;41.55;19.40;;;-4.60;99.90;;;;;;5079599;28;20491;-88
2022/12/14 03:53:13;;;;;;;39.30;17.80;;;-4.60;99.90;;;;;;5063011;28;20036;-89
2022/12/14 03:56:06;;;;;;;47.30;19.33;;;-4.60;99.90;;;;;;5079613;28;20040;-88
2022/12/14 03:58:50;;;;;;;46.50;19.83;;;-4.60;99.90;;;;;;5079674;28;20029;-88
2022/12/14 04:01:21;;;;;;;44.50;18.42;;;-4.60;99.90;;;;;;5088228;28;20078;-88
2022/12/14 04:03:46;;;;;;;49.28;20.15;;;-4.60;99.90;;;;;;5079459;28;20024;-88
2022/12/14 04:06:25;;;;;;;42.78;18.25;;;-4.60;99.90;;;;;;5079425;28;20025;-88
2022/12/14 04:09:06;;;;;;;42.97;20.13;;;-4.60;99.90;;;;;;5079517;28;20495;-88
2022/12/14 04:20:26;;;;;;;45.25;19.63;;;-4.70;99.90;;;;;;5079509;28;20422;-89
2022/12/14 04:26:14;;;;;;;46.40;20.00;;;-4.60;99.90;;;;;;5096573;28;20028;-88
2022/12/14 04:31:33;;;;;;;51.25;20.10;;;-4.60;99.90;;;;;;5069844;28;20039;-88
2022/12/14 04:34:03;;;;;;;52.30;21.73;;;-4.60;99.90;;;;;;5075733;28;20365;-88
2022/12/14 04:36:37;;;;;;;47.17;20.70;;;-4.60;99.90;;;;;;5059110;28;20056;-89
2022/12/14 04:39:13;;;;;;;44.65;20.98;;;-4.60;99.90;;;;;;5062725;28;20033;-88
2022/12/14 04:41:43;;;;;;;52.30;20.85;;;-4.60;99.90;;;;;;5059298;28;20048;-88
2022/12/14 04:44:15;;;;;;;46.40;20.75;;;-4.60;99.90;;;;;;5079306;28;20017;-88
2022/12/14 04:46:42;;;;;;;48.85;21.90;;;-4.60;99.90;;;;;;5077396;28;20028;-88
2022/12/14 04:49:56;;;;;;;48.22;21.08;;;-4.60;99.90;;;;;;5093111;28;20017;-89
2022/12/14 04:52:33;;;;;;;46.90;20.15;;;-4.70;99.90;;;;;;4995588;28;20058;-89
2022/12/14 04:55:22;;;;;;;52.45;24.05;;;-4.70;99.90;;;;;;5071273;28;20480;-88
2022/12/14 04:57:56;;;;;;;52.92;21.70;;;-4.60;99.90;;;;;;5072363;28;20029;-88
2022/12/14 05:00:22;;;;;;;49.67;21.60;;;-4.70;99.90;;;;;;5092452;28;20031;-88
2022/12/14 05:03:18;;;;;;;54.17;23.75;;;-4.70;99.90;;;;;;5058618;28;20033;-88
2022/12/14 05:05:55;;;;;;;52.50;23.02;;;-4.70;99.90;;;;;;5071999;28;20150;-89
2022/12/14 05:08:40;;;;;;;50.75;22.92;;;-4.70;99.90;;;;;;5079308;28;20033;-88
2022/12/14 05:11:19;;;;;;;48.90;22.70;;;-4.60;99.90;;;;;;5058596;28;20093;-89
2022/12/14 05:13:48;;;;;;;58.05;23.98;;;-4.60;99.90;;;;;;5075476;28;20043;-88
2022/12/14 05:16:23;;;;;;;60.53;25.90;;;-4.60;99.90;;;;;;5075296;28;20128;-88
2022/12/14 05:18:49;;;;;;;50.53;24.10;;;-4.60;99.90;;;;;;5058913;28;20035;-88
2022/12/14 05:24:01;;;;;;;52.47;24.73;;;-4.60;99.90;;;;;;5075181;28;20036;-88
2022/12/14 05:26:28;;;;;;;57.65;24.75;;;-4.60;99.90;;;;;;5074331;28;20029;-89
2022/12/14 05:28:54;;;;;;;55.97;25.42;;;-4.50;99.90;;;;;;5057934;28;20531;-89
2022/12/14 05:31:20;;;;;;;59.33;25.30;;;-4.60;99.90;;;;;;5075272;28;20111;-89
2022/12/14 05:33:45;;;;;;;49.55;22.60;;;-4.60;99.90;;;;;;5074420;28;20059;-88
2022/12/14 05:36:11;;;;;;;57.53;24.08;;;-4.60;99.90;;;;;;5076720;28;20024;-89
2022/12/14 05:38:36;;;;;;;60.42;25.48;;;-4.60;99.90;;;;;;5074609;28;20468;-89
2022/12/14 05:41:02;;;;;;;53.60;25.15;;;-4.60;99.90;;;;;;5057353;28;20472;-88
2022/12/14 05:43:28;;;;;;;58.72;25.20;;;-4.60;99.90;;;;;;5074094;28;20540;-89
2022/12/14 05:45:58;;;;;;;53.60;24.20;;;-4.60;99.90;;;;;;5074528;28;20035;-88
2022/12/14 05:48:24;;;;;;;56.63;25.50;;;-4.50;99.90;;;;;;5074354;28;20119;-89
2022/12/14 05:50:50;;;;;;;58.65;27.08;;;-4.50;99.90;;;;;;5074240;28;20113;-88
2022/12/14 05:53:41;;;;;;;52.60;24.73;;;-4.60;99.90;;;;;;5074327;28;20033;-89
2022/12/14 05:56:08;;;;;;;59.22;26.60;;;-4.50;99.90;;;;;;5074268;28;20056;-89
2022/12/14 05:58:35;;;;;;;60.03;26.70;;;-4.50;99.90;;;;;;5074185;28;20028;-89
2022/12/14 06:01:06;;;;;;;57.40;26.08;;;-4.50;99.90;;;;;;5054167;28;20040;-88
2022/12/14 06:03:32;;;;;;;62.38;28.30;;;-4.50;99.90;;;;;;5070665;28;20050;-88
2022/12/14 06:06:03;;;;;;;66.68;27.73;;;-4.50;99.90;;;;;;5052585;28;20476;-88
2022/12/14 06:08:37;;;;;;;72.35;29.52;;;-4.50;99.90;;;;;;5065563;28;20036;-89
2022/12/14 06:11:12;;;;;;;66.05;28.05;;;-4.50;99.90;;;;;;5071031;28;20123;-89
2022/12/14 06:14:24;;;;;;;69.05;27.17;;;-4.50;99.90;;;;;;5069088;28;20036;-88
2022/12/14 06:16:50;;;;;;;58.65;28.05;;;-4.50;99.90;;;;;;5066599;28;20028;-89
2022/12/14 06:19:16;;;;;;;72.60;30.65;;;-4.50;99.90;;;;;;5049953;28;20036;-88
2022/12/14 06:21:42;;;;;;;59.40;25.58;;;-4.50;99.90;;;;;;5060539;28;20028;-88
2022/12/14 06:24:10;;;;;;;71.05;28.08;;;-4.50;99.90;;;;;;5078511;28;20028;-88
2022/12/14 06:26:39;;;;;;;65.28;28.10;;;-4.50;99.90;;;;;;5062084;28;20037;-88
2022/12/14 06:29:06;;;;;;;65.30;27.90;;;-4.50;99.90;;;;;;5070622;28;20078;-88
2022/12/14 06:31:32;;;;;;;64.88;28.48;;;-4.50;99.90;;;;;;5081043;28;20024;-88
2022/12/14 06:34:00;;;;;;;69.55;29.02;;;-4.40;99.90;;;;;;5067542;28;20029;-88
2022/12/14 06:36:28;;;;;;;55.25;26.60;;;-4.40;99.90;;;;;;5065099;28;20029;-88
2022/12/14 06:38:55;;;;;;;64.32;27.70;;;-4.40;99.90;;;;;;5056283;28;20064;-88
2022/12/14 06:41:22;;;;;;;67.60;29.38;;;-4.40;99.90;;;;;;5070741;28;20059;-89
2022/12/14 06:43:48;;;;;;;71.43;29.58;;;-4.40;99.90;;;;;;5069820;28;20040;-88
2022/12/14 06:46:16;;;;;;;62.50;27.98;;;-4.40;99.90;;;;;;5068697;28;20036;-88
2022/12/14 06:48:42;;;;;;;66.53;29.15;;;-4.40;99.90;;;;;;5067610;28;20090;-89
2022/12/14 06:51:08;;;;;;;66.15;28.13;;;-4.30;99.90;;;;;;5054921;28;20459;-89
2022/12/14 06:53:34;;;;;;;67.65;29.23;;;-4.30;99.90;;;;;;5064793;28;20468;-89
2022/12/14 06:56:10;;;;;;;67.93;29.30;;;-4.30;99.90;;;;;;5068797;28;20028;-88
2022/12/14 06:58:37;;;;;;;73.20;31.08;;;-4.40;99.90;;;;;;5084855;28;20032;-89
2022/12/14 07:01:04;;;;;;;69.68;27.13;;;-4.40;99.90;;;;;;5062741;28;20114;-89
2022/12/14 07:03:30;;;;;;;71.65;31.23;;;-4.40;99.90;;;;;;5066959;28;20498;-88
2022/12/14 07:05:57;;;;;;;72.95;29.52;;;-4.40;99.90;;;;;;5068027;28;20057;-89
2022/12/14 07:08:24;;;;;;;76.18;30.95;;;-4.40;99.90;;;;;;5066228;28;20033;-88
2022/12/14 07:10:50;;;;;;;88.88;36.65;;;-4.40;99.90;;;;;;5065852;28;20163;-88
2022/12/14 07:13:16;;;;;;;93.10;36.47;;;-4.40;99.90;;;;;;5069009;28;20369;-88
2022/12/14 07:15:41;;;;;;;98.72;37.50;;;-4.40;99.90;;;;;;5043416;28;20173;-88
2022/12/14 07:18:07;;;;;;;109.90;43.33;;;-4.40;99.90;;;;;;5060897;28;20116;-89
2022/12/14 07:20:33;;;;;;;72.13;30.98;;;-4.40;99.90;;;;;;5069994;28;20070;-88
2022/12/14 07:22:58;;;;;;;63.85;28.17;;;-4.50;99.90;;;;;;5068007;28;20078;-89
2022/12/14 07:25:24;;;;;;;61.65;29.42;;;-4.40;99.90;;;;;;5068302;28;20036;-88
2022/12/14 07:27:50;;;;;;;60.78;25.05;;;-4.40;99.90;;;;;;5065137;28;20032;-88
2022/12/14 07:30:16;;;;;;;64.68;28.23;;;-4.50;99.90;;;;;;5070229;28;20029;-88
2022/12/14 07:32:42;;;;;;;67.82;29.25;;;-4.50;99.90;;;;;;5071500;28;20035;-87
2022/12/14 07:35:10;;;;;;;72.65;30.33;;;-4.50;99.90;;;;;;5070876;28;20025;-88
2022/12/14 07:37:36;;;;;;;70.82;27.80;;;-4.50;99.90;;;;;;5040108;28;20024;-88
2022/12/14 07:40:03;;;;;;;78.78;30.05;;;-4.60;99.90;;;;;;5068929;28;20039;-88
2022/12/14 07:42:29;;;;;;;75.65;30.75;;;-4.60;99.90;;;;;;5062655;28;20039;-88
2022/12/14 07:45:20;;;;;;;82.57;31.63;;;-4.60;99.90;;;;;;5072464;28;20017;-88
2022/12/14 07:47:46;;;;;;;70.15;31.30;;;-4.60;99.90;;;;;;5066831;28;20123;-88
2022/12/14 07:50:21;;;;;;;76.88;31.75;;;-4.50;99.90;;;;;;5063533;28;20116;-88
2022/12/14 07:52:46;;;;;;;70.35;28.95;;;-4.60;99.90;;;;;;5066416;28;20037;-89
2022/12/14 07:55:12;;;;;;;73.30;31.17;;;-4.60;99.90;;;;;;5060885;28;20028;-89
2022/12/14 07:57:38;;;;;;;74.13;32.08;;;-4.60;99.90;;;;;;5065181;28;20052;-89
2022/12/14 08:00:22;;;;;;;87.50;32.05;;;-4.50;99.90;;;;;;5066006;28;20029;-87
2022/12/14 08:02:48;;;;;;;72.93;30.48;;;-4.50;99.90;;;;;;5046947;28;20033;-88
2022/12/14 08:05:13;;;;;;;78.57;32.67;;;-4.60;99.90;;;;;;5071867;28;20078;-89
2022/12/14 08:07:39;;;;;;;78.38;31.92;;;-4.50;99.90;;;;;;5082013;28;20048;-89
2022/12/14 08:10:05;;;;;;;85.72;33.42;;;-4.50;99.90;;;;;;5071837;28;20032;-89
2022/12/14 08:12:31;;;;;;;83.20;35.13;;;-4.60;99.90;;;;;;5072044;28;20040;-88
2022/12/14 08:14:56;;;;;;;93.80;37.00;;;-4.50;99.90;;;;;;5048768;28;20414;-88
2022/12/14 08:17:22;;;;;;;87.00;36.42;;;-4.50;99.90;;;;;;5065677;28;20033;-89
2022/12/14 08:19:48;;;;;;;86.00;35.08;;;-4.50;99.90;;;;;;5069928;28;20032;-88
2022/12/14 08:22:13;;;;;;;85.88;33.67;;;-4.40;99.90;;;;;;5053015;28;20056;-88
2022/12/14 08:24:39;;;;;;;76.80;32.15;;;-4.40;99.90;;;;;;5069123;28;20035;-88
2022/12/14 08:27:05;;;;;;;81.68;34.65;;;-4.40;99.90;;;;;;5071789;28;20754;-88
2022/12/14 08:29:31;;;;;;;69.55;30.55;;;-4.40;99.90;;;;;;5070288;28;20033;-89
2022/12/14 08:31:57;;;;;;;74.18;32.03;;;-4.40;99.90;;;;;;5069551;28;20529;-88
2022/12/14 08:34:23;;;;;;;80.80;32.80;;;-4.40;99.90;;;;;;5072169;28;20072;-89
2022/12/14 08:36:49;;;;;;;73.43;32.60;;;-4.30;99.90;;;;;;5069061;28;20494;-89
2022/12/14 08:39:15;;;;;;;77.25;31.42;;;-4.40;99.90;;;;;;5063948;28;20021;-88
2022/12/14 08:41:50;;;;;;;83.32;33.95;;;-4.40;99.90;;;;;;5046346;28;20040;-89
2022/12/14 08:44:16;;;;;;;78.47;35.17;;;-4.30;99.90;;;;;;5071316;28;20063;-88
2022/12/14 08:46:41;;;;;;;82.25;34.88;;;-4.30;99.90;;;;;;5067262;28;20092;-88
2022/12/14 08:49:07;;;;;;;81.30;34.72;;;-4.40;99.90;;;;;;5059499;28;20060;-88
2022/12/14 08:51:36;;;;;;;78.00;32.05;;;-4.30;99.90;;;;;;5065214;28;20032;-88
2022/12/14 08:54:02;;;;;;;76.85;33.78;;;-4.30;99.90;;;;;;5068853;28;20024;-88
2022/12/14 08:56:28;;;;;;;74.40;33.10;;;-4.30;99.90;;;;;;5066298;28;20453;-89
2022/12/14 08:58:54;;;;;;;81.35;35.80;;;-4.20;99.90;;;;;;5057444;28;20070;-89
2022/12/14 09:01:23;;;;;;;81.65;34.38;;;-4.20;99.90;;;;;;5086225;28;20036;-89
2022/12/14 09:03:48;;;;;;;84.07;34.90;;;-4.20;99.90;;;;;;5066214;28;20043;-88
2022/12/14 09:06:20;;;;;;;76.00;29.75;;;-4.10;99.90;;;;;;5072337;28;20119;-89
2022/12/14 09:08:46;;;;;;;72.75;32.10;;;-4.10;99.90;;;;;;5071771;28;20067;-89
2022/12/14 09:11:13;;;;;;;73.50;31.02;;;-4.10;99.90;;;;;;5071937;28;20064;-88
2022/12/14 09:13:39;;;;;;;76.32;34.17;;;-4.10;99.90;;;;;;5079234;28;20040;-89
2022/12/14 09:16:09;;;;;;;76.30;32.92;;;-3.90;99.90;;;;;;5069500;28;20021;-89
2022/12/14 09:18:35;;;;;;;70.65;31.73;;;-3.80;99.90;;;;;;5053181;28;20025;-89
2022/12/14 09:21:01;;;;;;;78.30;32.08;;;-3.60;99.90;;;;;;5069496;28;20031;-88
2022/12/14 09:23:28;;;;;;;89.63;35.28;;;-3.40;99.90;;;;;;5069385;28;20147;-89
2022/12/14 09:26:05;;;;;;;66.97;29.40;;;-3.30;99.90;;;;;;5070361;28;20032;-88
2022/12/14 09:28:32;;;;;;;70.13;29.50;;;-3.30;99.90;;;;;;5054419;28;20039;-89
2022/12/14 09:31:00;;;;;;;61.90;27.25;;;-3.30;99.90;;;;;;5056707;28;20077;-89
2022/12/14 09:33:27;;;;;;;64.45;28.45;;;-3.30;99.90;;;;;;5073338;28;20387;-89
2022/12/14 09:35:59;;;;;;;65.03;27.88;;;-3.30;99.90;;;;;;5079058;28;20013;-89
2022/12/14 09:38:24;;;;;;;64.97;29.35;;;-3.20;99.90;;;;;;5053755;28;20031;-88
2022/12/14 09:40:55;;;;;;;58.53;27.25;;;-3.20;99.90;;;;;;5073137;28;20856;-89
2022/12/14 09:43:37;;;;;;;67.35;29.58;;;-3.20;99.90;;;;;;5073714;28;20037;-88
2022/12/14 09:46:35;;;;;;;60.10;27.48;;;-3.20;99.90;;;;;;5073573;28;20119;-88
2022/12/14 09:49:02;;;;;;;59.95;27.67;;;-3.20;99.90;;;;;;5094230;27;20040;-88
2022/12/14 09:51:35;;;;;;;60.03;26.33;;;-3.20;99.90;;;;;;5057584;28;20092;-89
2022/12/14 09:54:13;;;;;;;53.08;26.38;;;-3.20;99.90;;;;;;5071178;28;20024;-89
2022/12/14 09:56:41;;;;;;;62.05;27.73;;;-3.10;99.90;;;;;;5069597;28;20267;-89
2022/12/14 09:59:14;;;;;;;60.13;26.35;;;-3.10;99.90;;;;;;5056471;28;20032;-89
2022/12/14 10:01:55;;;;;;;64.85;28.50;;;-3.20;99.90;;;;;;5054426;28;20036;-88
2022/12/14 10:04:36;;;;;;;65.90;28.60;;;-3.20;99.90;;;;;;5056891;28;20036;-89
2022/12/14 10:07:12;;;;;;;65.43;30.27;;;-3.20;99.90;;;;;;5088598;28;20025;-89
2022/12/14 10:10:00;;;;;;;60.97;27.67;;;-3.00;99.90;;;;;;5073000;28;20032;-89
2022/12/14 10:12:48;;;;;;;55.60;26.77;;;-2.90;99.90;;;;;;5056316;28;20039;-89
2022/12/14 10:15:51;;;;;;;59.88;27.92;;;-2.80;99.90;;;;;;5072206;28;20025;-88
2022/12/14 10:18:26;;;;;;;60.83;25.85;;;-2.80;99.90;;;;;;5073036;28;20496;-89
2022/12/14 10:21:03;;;;;;;51.40;24.88;;;-2.70;99.90;;;;;;5073174;28;20044;-89
2022/12/14 10:23:59;;;;;;;53.90;26.10;;;-2.70;99.90;;;;;;5077632;28;20082;-88
2022/12/14 10:26:51;;;;;;;62.78;28.27;;;-2.70;99.90;;;;;;5072338;28;20036;-89
2022/12/14 10:29:26;;;;;;;60.47;28.60;;;-2.70;99.90;;;;;;5061612;28;20052;-89
2022/12/14 10:32:01;;;;;;;53.78;26.80;;;-2.60;99.90;;;;;;5067403;28;20028;-89
2022/12/14 10:34:29;;;;;;;53.88;25.23;;;-2.60;99.90;;;;;;5072392;28;20753;-88
2022/12/14 10:37:25;;;;;;;63.90;29.58;;;-2.70;99.90;;;;;;5072853;28;20021;-88
2022/12/14 10:40:09;;;;;;;61.40;26.67;;;-2.60;99.90;;;;;;5083763;28;20021;-89
2022/12/14 10:42:48;;;;;;;57.72;27.05;;;-2.60;99.90;;;;;;5071920;28;20040;-89
2022/12/14 10:45:34;;;;;;;56.22;25.85;;;-2.70;99.90;;;;;;5054957;28;20024;-89
2022/12/14 10:48:16;;;;;;;55.58;27.98;;;-2.70;99.90;;;;;;5083944;28;20077;-89
2022/12/14 10:51:19;;;;;;;62.28;28.85;;;-2.60;99.90;;;;;;5071747;28;20475;-88
2022/12/14 10:54:21;;;;;;;54.05;25.92;;;-2.50;99.90;;;;;;5064877;28;20054;-90
2022/12/14 10:56:48;;;;;;;62.38;27.48;;;-2.60;99.90;;;;;;5076530;28;20021;-88
2022/12/14 10:59:17;;;;;;;59.92;28.13;;;-2.50;99.90;;;;;;5073059;28;20021;-88
2022/12/14 11:01:50;;;;;;;63.38;28.92;;;-2.40;99.90;;;;;;5049699;28;20070;-88
2022/12/14 11:04:30;;;;;;;62.58;29.73;;;-2.50;99.90;;;;;;5067347;28;20132;-89
2022/12/14 11:07:00;;;;;;;64.32;28.70;;;-2.50;99.90;;;;;;5065217;28;20029;-89
2022/12/14 11:09:27;;;;;;;60.72;27.33;;;-2.50;99.90;;;;;;5046583;28;20115;-88
2022/12/14 11:11:58;;;;;;;69.00;28.40;;;-2.30;99.90;;;;;;5061725;28;20055;-89
2022/12/14 11:14:24;;;;;;;;;;;-2.20;99.90;;;;;;5066665;28;20032;-88
2022/12/14 11:17:27;;;;;;;72.85;32.17;;;-2.10;99.90;;;;;;5056499;28;19919;-89
2022/12/14 11:20:22;;;;;;;55.10;26.75;;;-2.10;99.90;;;;;;5077478;28;20066;-89
2022/12/14 11:22:54;;;;;;;62.60;29.38;;;-2.00;99.90;;;;;;5067501;28;20031;-88
2022/12/14 11:25:28;;;;;;;65.57;27.90;;;-2.00;99.90;;;;;;5058309;28;20392;-89
2022/12/14 11:27:54;;;;;;;63.20;29.45;;;-2.10;99.90;;;;;;5065797;28;20480;-89
2022/12/14 11:30:20;;;;;;;71.25;29.20;;;-2.00;99.90;;;;;;5068839;28;20035;-89
2022/12/14 11:32:47;;;;;;;64.00;29.52;;;-1.90;99.90;;;;;;5069472;28;20540;-89
2022/12/14 11:35:17;;;;;;;62.90;28.17;;;-1.80;99.90;;;;;;5071176;28;20033;-89
2022/12/14 11:37:44;;;;;;;66.65;27.63;;;-1.80;99.90;;;;;;5071293;28;20028;-89
2022/12/14 11:40:24;;;;;;;57.03;26.08;;;-1.60;99.90;;;;;;5057348;28;20032;-89
2022/12/14 11:42:58;;;;;;;60.10;27.48;;;-1.70;99.90;;;;;;5075716;28;20064;-90
2022/12/14 11:45:23;;;;;;;58.95;27.70;;;-1.70;99.90;;;;;;5059245;28;20090;-89
2022/12/14 11:48:14;;;;;;;59.55;28.17;;;-1.70;99.90;;;;;;5075505;28;20040;-89
2022/12/14 11:50:45;;;;;;;76.57;29.17;;;-1.60;99.90;;;;;;5079084;28;20043;-89
2022/12/14 11:53:13;;;;;;;56.58;27.73;;;-1.40;99.90;;;;;;5089200;28;20270;-88
2022/12/14 11:55:48;;;;;;;64.32;26.70;;;-1.30;99.90;;;;;;5081430;28;20036;-89
2022/12/14 11:58:18;;;;;;;56.33;26.52;;;-1.20;99.90;;;;;;5058913;28;20028;-89
2022/12/14 12:01:01;;;;;;;57.05;25.52;;;-1.20;99.90;;;;;;5075302;28;20472;-89
2022/12/14 12:03:34;;;;;;;52.03;25.27;;;-1.30;99.90;;;;;;5075334;28;20054;-89
2022/12/14 12:06:07;;;;;;;53.05;25.92;;;-1.30;99.90;;;;;;5092028;28;20043;-89
2022/12/14 12:08:39;;;;;;;60.10;28.70;;;-1.20;99.90;;;;;;5058718;28;20115;-88
2022/12/14 12:11:20;;;;;;;67.18;31.40;;;-1.00;99.90;;;;;;5076415;28;20048;-89
2022/12/14 12:13:51;;;;;;;49.90;25.10;;;-1.10;99.90;;;;;;5075564;28;20025;-89
2022/12/14 12:16:25;;;;;;;50.17;24.30;;;-1.00;99.90;;;;;;5076900;28;20109;-89
2022/12/14 12:19:16;;;;;;;47.92;22.98;;;-1.20;99.90;;;;;;5075453;28;20422;-89
2022/12/14 12:22:00;;;;;;;55.65;24.05;;;-1.30;99.90;;;;;;5075918;28;20024;-89
2022/12/14 12:24:37;;;;;;;52.92;24.05;;;-1.40;99.90;;;;;;5075076;28;20025;-89
2022/12/14 12:27:10;;;;;;;45.72;22.52;;;-1.50;99.90;;;;;;5075018;28;20024;-89
2022/12/14 12:29:43;;;;;;;57.33;25.20;;;-1.60;99.90;;;;;;5075190;28;20373;-89
2022/12/14 12:32:25;;;;;;;55.90;25.67;;;-1.60;99.90;;;;;;5075435;28;20082;-88
2022/12/14 12:35:06;;;;;;;61.25;26.08;;;-1.50;99.90;;;;;;5075920;28;20028;-90
2022/12/14 12:37:43;;;;;;;62.00;26.38;;;-1.40;99.90;;;;;;5058061;28;20478;-89
2022/12/14 12:40:26;;;;;;;54.10;24.23;;;-1.50;99.90;;;;;;5074695;28;20093;-89
2022/12/14 12:43:14;;;;;;;49.05;23.25;;;-1.60;99.90;;;;;;5059393;28;20028;-89
2022/12/14 12:45:47;;;;;;;53.33;23.77;;;-1.50;99.90;;;;;;5074463;28;20459;-89
2022/12/14 12:48:30;;;;;;;47.83;22.83;;;-1.60;99.90;;;;;;5074439;28;20058;-89
2022/12/14 12:51:24;;;;;;;57.85;26.73;;;-1.70;99.90;;;;;;5075063;28;20539;-89
2022/12/14 12:54:05;;;;;;;47.80;23.00;;;-1.70;99.90;;;;;;5073380;28;20025;-89
2022/12/14 12:56:42;;;;;;;;;;;-1.90;99.90;;;;;;5074874;28;20081;-89
2022/12/14 12:59:18;;;;;;;55.47;24.20;;;-2.00;99.90;;;;;;5074595;28;19908;-89
2022/12/14 13:01:50;;;;;;;53.63;24.08;;;-2.00;99.90;;;;;;5057820;28;20028;-89
2022/12/14 13:04:35;;;;;;;;;;;-1.90;99.90;;;;;;5082350;28;20081;-89
2022/12/14 13:07:29;;;;;;;51.03;22.30;;;-1.90;99.90;;;;;;5075865;28;19908;-89
2022/12/14 13:10:26;;;;;;;52.97;23.98;;;-1.80;99.90;;;;;;5069089;28;20048;-90
2022/12/14 13:13:14;;;;;;;53.72;24.85;;;-1.80;99.90;;;;;;5085240;28;20029;-89
2022/12/14 13:15:53;;;;;;;46.30;23.23;;;-1.90;99.90;;;;;;5082610;28;20028;-89
2022/12/14 13:18:44;;;;;;;58.25;23.77;;;-1.90;99.90;;;;;;5074488;28;20956;-89
2022/12/14 13:21:30;;;;;;;;;;;-1.80;99.90;;;;;;5067514;28;20037;-89